Time;durP1;ratioP1;P1;durP2;ratioP2;P2;SDS_P1;SDS_P2;PMS_P1;PMS_P2;Temp;Humidity;BMP_temperature;BMP_pressure;BME280_temperature;BME280_humidity;BME280_pressure;Samples;Min_cycle;Max_cycle;Signal;HPM_P1;HPM_P2
2023/03/28 00:00:50;;;;;;;2.30;1.88;;;;;;;0.90;100.00;92075.22;5092285;28;20393;-73
2023/03/28 00:03:21;;;;;;;2.30;1.70;;;;;;;0.89;100.00;92090.56;5078627;28;20043;-73
2023/03/28 00:05:54;;;;;;;2.55;1.67;;;;;;;1.00;100.00;92091.84;5091839;28;20055;-72
2023/03/28 00:08:20;;;;;;;2.00;1.55;;;;;;;0.93;100.00;92110.25;5092203;28;20121;-73
2023/03/28 00:10:47;;;;;;;2.17;1.83;;;;;;;0.97;100.00;92105.63;5092083;28;20446;-73
2023/03/28 00:13:14;;;;;;;2.25;1.80;;;;;;;0.83;100.00;92109.75;5091412;28;20097;-73
2023/03/28 00:15:42;;;;;;;2.95;2.35;;;;;;;0.99;100.00;92118.09;5092040;28;20048;-73
2023/03/28 00:18:10;;;;;;;3.55;2.25;;;;;;;1.18;100.00;92117.53;5091412;28;20089;-73
2023/03/28 00:20:38;;;;;;;3.40;2.38;;;;;;;1.13;100.00;92117.28;5091670;28;20322;-72
2023/03/28 00:23:06;;;;;;;2.40;1.90;;;;;;;1.01;100.00;92122.00;5091386;28;20089;-72
2023/03/28 00:25:34;;;;;;;1.88;1.20;;;;;;;0.74;100.00;92128.53;5091585;28;20052;-73
2023/03/28 00:28:01;;;;;;;3.78;2.67;;;;;;;0.89;100.00;92141.13;5091640;28;20040;-72
2023/03/28 00:30:28;;;;;;;2.70;1.75;;;;;;;0.73;100.00;92145.44;5091334;28;20044;-72
2023/03/28 00:32:54;;;;;;;1.90;1.35;;;;;;;0.45;100.00;92102.31;5091120;28;20047;-73
2023/03/28 00:35:21;;;;;;;2.10;1.63;;;;;;;1.01;100.00;92154.09;5091554;28;20044;-72
2023/03/28 00:37:50;;;;;;;3.30;2.20;;;;;;;1.22;100.00;92158.44;5091526;28;20071;-72
2023/03/28 00:40:18;;;;;;;5.22;2.78;;;;;;;1.35;100.00;92157.78;5090896;28;20565;-72
2023/03/28 00:42:45;;;;;;;2.63;1.80;;;;;;;1.48;100.00;92158.88;5090785;28;20172;-73
2023/03/28 00:45:12;;;;;;;2.20;1.80;;;;;;;0.97;100.00;92163.78;5091068;28;20055;-73
2023/03/28 00:47:43;;;;;;;2.53;1.83;;;;;;;0.97;100.00;92184.00;5090951;28;20043;-72
2023/03/28 00:50:15;;;;;;;2.00;1.70;;;;;;;0.44;100.00;92200.06;5090794;28;20051;-73
2023/03/28 00:52:48;;;;;;;2.10;1.63;;;;;;;0.34;100.00;92186.91;5090352;28;20565;-72
2023/03/28 00:55:22;;;;;;;2.13;1.88;;;;;;;0.17;100.00;92197.16;5091168;28;20067;-72
2023/03/28 00:57:51;;;;;;;2.38;2.08;;;;;;;0.35;100.00;92204.41;5090766;28;20048;-72
2023/03/28 01:00:19;;;;;;;2.65;2.20;;;;;;;0.17;100.00;92212.31;5090871;28;20051;-72
2023/03/28 01:02:51;;;;;;;3.00;2.70;;;;;;;-0.12;100.00;92188.56;5090501;28;20052;-72
2023/03/28 01:05:19;;;;;;;2.72;2.28;;;;;;;0.04;100.00;92215.41;5090493;28;20523;-72
2023/03/28 01:07:51;;;;;;;2.97;2.67;;;;;;;0.01;100.00;92217.47;5089150;28;20054;-72
2023/03/28 01:10:21;;;;;;;2.90;2.60;;;;;;;-0.06;100.00;92215.63;5080566;28;20051;-72
2023/03/28 01:12:48;;;;;;;2.90;2.60;;;;;;;0.00;100.00;92224.28;5090875;28;20507;-72
2023/03/28 01:15:15;;;;;;;3.30;2.83;;;;;;;0.08;100.00;92228.47;5090797;28;20427;-72
2023/03/28 01:17:42;;;;;;;3.22;2.63;;;;;;;0.13;100.00;92229.53;5090847;28;20256;-72
2023/03/28 01:20:25;;;;;;;3.65;2.88;;;;;;;0.34;100.00;92227.31;5090685;28;20057;-73
2023/03/28 01:23:28;;;;;;;3.45;2.60;;;;;;;0.41;100.00;92235.00;5090852;28;20385;-72
2023/03/28 01:26:13;;;;;;;2.83;2.42;;;;;;;0.38;100.00;92233.59;5090409;28;20048;-72
2023/03/28 01:29:00;;;;;;;3.50;2.50;;;;;;;0.23;100.00;92246.97;5089930;28;20051;-73
2023/03/28 01:31:45;;;;;;;2.63;2.30;;;;;;;0.34;100.00;92230.63;5090027;28;20495;-73
2023/03/28 01:34:37;;;;;;;2.53;2.22;;;;;;;0.28;100.00;92243.97;5090268;28;20052;-72
2023/03/28 01:37:22;;;;;;;3.65;2.65;;;;;;;0.27;100.00;92244.88;5086167;28;20044;-73
2023/03/28 01:40:10;;;;;;;2.63;2.30;;;;;;;0.22;100.00;92245.41;5080916;28;20056;-72
2023/03/28 01:42:48;;;;;;;4.03;3.28;;;;;;;-0.29;100.00;92243.41;5088541;28;20044;-73
2023/03/28 01:45:21;;;;;;;3.58;3.28;;;;;;;-0.33;100.00;92249.75;5089777;28;20040;-73
2023/03/28 01:47:55;;;;;;;3.45;3.10;;;;;;;-0.44;100.00;92250.91;5090094;28;20090;-73
2023/03/28 01:50:27;;;;;;;4.28;3.60;;;;;;;-0.55;100.00;92257.88;5073545;28;20094;-73
2023/03/28 01:53:03;;;;;;;4.65;3.28;;;;;;;-0.43;100.00;92248.22;5080204;28;20048;-72
2023/03/28 01:55:36;;;;;;;3.45;3.08;;;;;;;-0.57;100.00;92257.28;5089552;28;20044;-72
2023/03/28 01:58:07;;;;;;;3.42;3.10;;;;;;;-0.60;100.00;92251.78;5089905;28;20435;-72
2023/03/28 02:00:42;;;;;;;2.65;2.38;;;;;;;-0.63;100.00;92247.84;5089598;28;20040;-72
2023/03/28 02:03:17;;;;;;;3.47;2.83;;;;;;;-0.53;100.00;92255.19;5089294;28;20093;-72
2023/03/28 02:05:46;;;;;;;3.25;2.63;;;;;;;-0.44;100.00;92274.41;5089639;28;20051;-72
2023/03/28 02:08:17;;;;;;;2.53;2.30;;;;;;;-0.49;100.00;92268.28;5089720;28;20119;-72
2023/03/28 02:10:46;;;;;;;2.72;2.50;;;;;;;-0.39;100.00;92278.16;5089166;28;20048;-72
2023/03/28 02:13:17;;;;;;;2.85;2.20;;;;;;;-0.41;100.00;92281.63;5075765;28;20108;-74
2023/03/28 02:15:48;;;;;;;2.85;2.45;;;;;;;-0.33;100.00;92285.06;5074923;28;20057;-73
2023/03/28 02:18:19;;;;;;;4.30;3.35;;;;;;;-0.06;100.00;92286.31;5072668;28;20044;-73
2023/03/28 02:20:52;;;;;;;4.43;3.10;;;;;;;0.31;100.00;92273.13;5088339;28;20436;-73
2023/03/28 02:23:38;;;;;;;3.63;2.80;;;;;;;0.20;100.00;92270.06;5075356;28;20044;-73
2023/03/28 02:26:18;;;;;;;3.97;2.90;;;;;;;0.28;100.00;92281.03;5082348;28;20045;-74
2023/03/28 02:28:48;;;;;;;3.15;2.53;;;;;;;0.20;100.00;92285.22;5087444;28;20058;-73
2023/03/28 02:31:15;;;;;;;4.75;3.00;;;;;;;0.01;100.00;92271.31;5077018;28;20407;-73
2023/03/28 02:33:44;;;;;;;8.82;7.82;;;;;;;0.18;100.00;92289.63;5068742;28;20078;-73
2023/03/28 02:36:30;;;;;;;7.78;4.50;;;;;;;0.24;100.00;92290.72;5069285;28;20048;-73
2023/03/28 02:39:17;;;;;;;3.95;3.42;;;;;;;0.42;100.00;92292.94;5069186;28;20125;-71
2023/03/28 02:41:58;;;;;;;2.65;2.20;;;;;;;0.04;100.00;92303.00;5068938;28;20049;-73
2023/03/28 02:44:41;;;;;;;3.88;2.58;;;;;;;-0.09;100.00;92268.97;5069048;28;20153;-73
2023/03/28 02:47:16;;;;;;;3.60;2.63;;;;;;;0.09;100.00;92308.34;5068709;28;20041;-72
2023/03/28 02:49:49;;;;;;;3.65;2.90;;;;;;;0.36;100.00;92307.03;5068865;28;20074;-73
2023/03/28 02:52:33;;;;;;;3.05;2.50;;;;;;;0.13;100.00;92332.28;5068884;28;20048;-72
2023/03/28 02:55:06;;;;;;;3.28;2.63;;;;;;;-0.24;100.00;92326.19;5072804;28;20046;-73
2023/03/28 02:57:36;;;;;;;7.07;3.28;;;;;;;-0.02;100.00;92327.16;5075717;28;20052;-72
2023/03/28 03:00:10;;;;;;;4.00;2.97;;;;;;;-0.47;100.00;92324.41;5075641;28;20110;-72
2023/03/28 03:02:37;;;;;;;3.13;2.63;;;;;;;-0.47;100.00;92330.22;5075373;28;20493;-71
2023/03/28 03:05:05;;;;;;;3.35;2.47;;;;;;;-0.65;100.00;92339.75;5075394;28;20090;-73
2023/03/28 03:07:32;;;;;;;3.25;2.20;;;;;;;-0.58;100.00;92348.25;5075930;28;20193;-71
2023/03/28 03:09:59;;;;;;;2.42;2.10;;;;;;;-0.68;100.00;92339.13;5075256;28;20045;-70
2023/03/28 03:12:27;;;;;;;2.67;2.00;;;;;;;-0.88;100.00;92333.66;5075054;28;20087;-73
2023/03/28 03:14:54;;;;;;;2.72;2.20;;;;;;;-0.79;100.00;92348.78;5075054;28;20048;-72
2023/03/28 03:17:21;;;;;;;4.60;1.90;;;;;;;-0.98;100.00;92350.69;5075487;28;20048;-72
2023/03/28 03:19:47;;;;;;;2.75;1.98;;;;;;;-1.02;100.00;92345.19;5075029;28;21430;-72
2023/03/28 03:22:14;;;;;;;2.53;1.90;;;;;;;-1.13;100.00;92350.56;5075502;28;20109;-73
2023/03/28 03:24:41;;;;;;;3.30;2.10;;;;;;;-1.21;100.00;92354.69;5074953;28;20044;-72
2023/03/28 03:27:07;;;;;;;2.38;1.90;;;;;;;-1.18;100.00;92366.19;5074847;28;20041;-73
2023/03/28 03:29:35;;;;;;;2.63;1.90;;;;;;;-1.15;100.00;92372.63;5085257;28;20040;-72
2023/03/28 03:32:02;;;;;;;2.42;2.00;;;;;;;-1.14;100.00;92382.56;5078152;28;20485;-72
2023/03/28 03:34:32;;;;;;;2.65;2.38;;;;;;;-1.13;100.00;92390.91;5075331;28;20052;-72
2023/03/28 03:36:59;;;;;;;4.53;3.00;;;;;;;-0.85;100.00;92400.63;5075150;28;20091;-72
2023/03/28 03:39:26;;;;;;;3.58;2.42;;;;;;;-0.85;100.00;92393.88;5074834;28;20281;-72
2023/03/28 03:41:52;;;;;;;2.58;2.10;;;;;;;-0.97;100.00;92407.75;5074821;28;20135;-72
2023/03/28 03:44:19;;;;;;;5.57;4.07;;;;;;;-1.22;100.00;92401.00;5075138;28;20122;-72
2023/03/28 03:46:47;;;;;;;2.95;2.22;;;;;;;-1.25;100.00;92423.19;5074970;28;20044;-73
2023/03/28 03:49:14;;;;;;;3.22;2.63;;;;;;;-1.19;100.00;92406.66;5075485;28;20045;-74
2023/03/28 03:51:41;;;;;;;6.60;3.35;;;;;;;-1.23;100.00;92409.50;5074713;28;20048;-73
2023/03/28 03:54:10;;;;;;;3.45;2.70;;;;;;;-1.24;100.00;92415.47;5074878;28;20456;-73
2023/03/28 03:56:37;;;;;;;4.97;3.15;;;;;;;-1.14;100.00;92414.53;5075197;28;20061;-73
2023/03/28 03:59:04;;;;;;;4.15;3.45;;;;;;;-1.09;100.00;92419.88;5075158;28;20093;-73
2023/03/28 04:01:31;;;;;;;4.07;3.20;;;;;;;-1.22;100.00;92422.88;5074745;28;20094;-73
2023/03/28 04:03:59;;;;;;;4.63;3.60;;;;;;;-1.21;100.00;92421.91;5074882;28;20086;-72
2023/03/28 04:06:28;;;;;;;5.28;3.58;;;;;;;-1.41;100.00;92434.84;5072121;28;20044;-72
2023/03/28 04:08:55;;;;;;;5.00;3.53;;;;;;;-1.17;100.00;92423.19;5071650;28;20037;-72
2023/03/28 04:11:21;;;;;;;5.55;4.22;;;;;;;-1.45;100.00;92426.00;5071951;28;20297;-71
2023/03/28 04:13:48;;;;;;;5.45;3.67;;;;;;;-1.24;100.00;92438.16;5071589;28;20444;-71
2023/03/28 04:16:15;;;;;;;5.80;4.50;;;;;;;-1.11;100.00;92447.75;5071654;28;20041;-73
2023/03/28 04:18:44;;;;;;;6.43;4.28;;;;;;;-1.23;100.00;92446.50;5071334;28;20049;-71
2023/03/28 04:21:12;;;;;;;5.07;3.88;;;;;;;-1.23;100.00;92451.53;5071573;28;20048;-71
2023/03/28 04:23:42;;;;;;;5.07;4.10;;;;;;;-1.22;100.00;92456.44;5069751;28;20509;-71
2023/03/28 04:26:19;;;;;;;4.45;3.85;;;;;;;-1.29;100.00;92454.69;5069248;28;20072;-71
2023/03/28 04:28:46;;;;;;;5.57;4.05;;;;;;;-1.39;100.00;92453.09;5073582;28;20040;-70
2023/03/28 04:31:13;;;;;;;5.00;3.95;;;;;;;-1.40;100.00;92469.16;5080152;28;20049;-72
2023/03/28 04:33:44;;;;;;;6.28;4.05;;;;;;;-1.16;100.00;92464.31;5071024;28;20052;-72
2023/03/28 04:36:15;;;;;;;6.65;4.68;;;;;;;-1.13;100.00;92469.03;5071728;28;20048;-72
2023/03/28 04:38:44;;;;;;;8.52;5.68;;;;;;;-0.72;100.00;92458.94;5071341;28;20408;-72
2023/03/28 04:41:12;;;;;;;7.45;4.97;;;;;;;-0.51;100.00;92460.16;5071149;28;20052;-72
2023/03/28 04:43:39;;;;;;;8.25;5.50;;;;;;;-0.17;100.00;92468.44;5070807;28;20045;-72
2023/03/28 04:46:06;;;;;;;6.25;4.68;;;;;;;-0.49;100.00;92475.16;5070737;28;20040;-72
2023/03/28 04:48:33;;;;;;;6.18;4.70;;;;;;;-0.43;100.00;92471.97;5070768;28;20044;-73
2023/03/28 04:51:00;;;;;;;6.25;4.45;;;;;;;-0.49;100.00;92468.38;5070954;28;20044;-73
2023/03/28 04:53:28;;;;;;;11.90;6.32;;;;;;;-0.84;100.00;92476.13;5070529;28;20048;-71
2023/03/28 04:55:54;;;;;;;15.10;5.53;;;;;;;-0.79;100.00;92470.59;5070815;28;20036;-72
2023/03/28 04:58:23;;;;;;;15.52;6.32;;;;;;;-0.53;100.00;92477.19;5070680;28;20048;-72
2023/03/28 05:00:50;;;;;;;10.10;5.47;;;;;;;-0.43;100.00;92472.78;5071004;28;20044;-72
2023/03/28 05:03:18;;;;;;;5.53;4.32;;;;;;;-0.61;100.00;92480.53;5070474;28;20049;-73
2023/03/28 05:05:46;;;;;;;7.07;4.63;;;;;;;-0.71;100.00;92484.94;5070758;28;20098;-71
2023/03/28 05:08:14;;;;;;;6.00;4.63;;;;;;;-0.86;100.00;92489.84;5070785;28;20052;-72
2023/03/28 05:10:42;;;;;;;5.30;4.60;;;;;;;-0.68;100.00;92477.84;5070912;28;20087;-72
2023/03/28 05:13:09;;;;;;;6.78;5.45;;;;;;;-1.05;100.00;92495.97;5070647;28;20045;-73
2023/03/28 05:15:36;;;;;;;7.18;4.80;;;;;;;-1.16;100.00;92499.59;5068060;28;20044;-73
2023/03/28 05:18:02;;;;;;;8.18;5.63;;;;;;;-1.05;100.00;92495.97;5068321;28;20040;-71
2023/03/28 05:20:29;;;;;;;8.45;6.32;;;;;;;-1.05;100.00;92486.69;5069250;28;20045;-71
2023/03/28 05:22:56;;;;;;;10.50;8.95;;;;;;;-1.24;100.00;92498.63;5070391;28;20044;-72
2023/03/28 05:25:24;;;;;;;6.63;6.03;;;;;;;-1.35;100.00;92488.84;5069908;28;20599;-72
2023/03/28 05:27:52;;;;;;;10.13;8.20;;;;;;;-1.35;100.00;92499.72;5070575;28;20072;-71
2023/03/28 05:30:19;;;;;;;7.68;6.70;;;;;;;-1.42;100.00;92497.97;5083474;28;20053;-72
2023/03/28 05:32:46;;;;;;;7.22;6.20;;;;;;;-1.28;100.00;92501.63;5069956;28;20049;-72
2023/03/28 05:35:15;;;;;;;7.68;6.55;;;;;;;-1.40;100.00;92488.50;5070018;28;20105;-71
2023/03/28 05:37:45;;;;;;;8.77;7.85;;;;;;;-1.29;100.00;92492.47;5069955;28;20044;-72
2023/03/28 05:40:14;;;;;;;8.80;7.93;;;;;;;-1.18;100.00;92514.06;5070236;28;20064;-72
2023/03/28 05:42:41;;;;;;;9.77;7.72;;;;;;;-1.10;100.00;92504.78;5070819;28;20461;-72
2023/03/28 05:45:11;;;;;;;7.03;6.32;;;;;;;-1.18;100.00;92509.03;5069867;28;20131;-72
2023/03/28 05:47:38;;;;;;;8.07;6.85;;;;;;;-1.24;100.00;92510.44;5069797;28;20558;-74
2023/03/28 05:50:06;;;;;;;8.15;7.35;;;;;;;-1.29;100.00;92500.81;5069391;28;20052;-73
2023/03/28 05:52:33;;;;;;;8.38;6.00;;;;;;;-1.37;100.00;92498.28;5069608;28;20052;-73
2023/03/28 05:55:00;;;;;;;7.13;6.43;;;;;;;-1.35;100.00;92519.88;5069447;28;20057;-72
2023/03/28 05:57:26;;;;;;;10.40;7.00;;;;;;;-1.02;100.00;92521.66;5069539;28;20044;-72
2023/03/28 05:59:53;;;;;;;13.27;8.57;;;;;;;-0.95;100.00;92515.06;5069349;28;20087;-72
2023/03/28 06:02:23;;;;;;;8.18;7.03;;;;;;;-0.97;100.00;92537.09;5068941;28;20052;-73
2023/03/28 06:04:52;;;;;;;7.63;6.90;;;;;;;-1.08;100.00;92533.16;5069318;28;20497;-73
2023/03/28 06:07:21;;;;;;;6.75;5.78;;;;;;;-1.18;100.00;92537.53;5069871;28;20445;-74
2023/03/28 06:09:48;;;;;;;11.80;7.13;;;;;;;-1.25;100.00;92539.88;5082322;28;20055;-74
2023/03/28 06:12:15;;;;;;;15.23;8.05;;;;;;;-0.97;100.00;92538.84;5069251;28;20055;-71
2023/03/28 06:14:42;;;;;;;11.45;7.78;;;;;;;-0.98;100.00;92552.38;5069307;28;20053;-72
2023/03/28 06:17:09;;;;;;;8.63;6.80;;;;;;;-1.10;100.00;92541.81;5069072;28;20113;-72
2023/03/28 06:19:37;;;;;;;8.63;7.28;;;;;;;-0.99;100.00;92555.84;5069290;28;20110;-72
2023/03/28 06:22:04;;;;;;;8.48;7.05;;;;;;;-0.91;100.00;92576.03;5068973;28;20044;-72
2023/03/28 06:24:31;;;;;;;8.68;6.57;;;;;;;-1.04;100.00;92579.00;5069150;28;20114;-72
2023/03/28 06:26:58;;;;;;;11.98;8.13;;;;;;;-1.19;100.00;92567.94;5069163;28;20040;-72
2023/03/28 06:29:25;;;;;;;30.15;15.35;;;;;;;-1.29;100.00;92573.13;5076826;28;20571;-73
2023/03/28 06:31:51;;;;;;;8.65;7.45;;;;;;;-1.25;100.00;92579.44;5073610;28;20207;-74
2023/03/28 06:34:18;;;;;;;8.45;7.55;;;;;;;-1.55;100.00;92567.22;5069564;28;20106;-73
2023/03/28 06:36:46;;;;;;;9.65;8.10;;;;;;;-1.52;100.00;92584.53;5068850;28;20393;-73
2023/03/28 06:39:13;;;;;;;7.70;6.85;;;;;;;-1.54;100.00;92578.84;5068864;28;20102;-72
2023/03/28 06:41:40;;;;;;;8.02;6.57;;;;;;;-1.55;100.00;92579.81;5069135;28;20040;-73
2023/03/28 06:44:07;;;;;;;7.22;5.65;;;;;;;-1.64;100.00;92585.72;5068675;28;20126;-72
2023/03/28 06:46:34;;;;;;;6.95;6.25;;;;;;;-1.65;100.00;92589.19;5068773;28;20044;-73
2023/03/28 06:49:00;;;;;;;7.07;6.38;;;;;;;-1.45;100.00;92591.50;5068718;28;20509;-73
2023/03/28 06:51:27;;;;;;;6.20;5.60;;;;;;;-1.25;100.00;92581.94;5068815;28;20044;-73
2023/03/28 06:53:55;;;;;;;7.82;6.22;;;;;;;-1.21;100.00;92580.69;5069030;28;20049;-73
2023/03/28 06:56:22;;;;;;;7.78;7.07;;;;;;;-1.18;100.00;92579.59;5068577;28;20048;-73
2023/03/28 06:58:49;;;;;;;6.97;5.25;;;;;;;-1.57;100.00;92570.81;5069246;28;20049;-73
2023/03/28 07:01:18;;;;;;;6.82;6.13;;;;;;;-1.58;100.00;92582.59;5068654;28;20056;-73
2023/03/28 07:03:45;;;;;;;7.57;6.38;;;;;;;-1.35;100.00;92582.84;5068559;28;20537;-73
2023/03/28 07:06:12;;;;;;;9.95;7.90;;;;;;;-1.73;100.00;92571.53;5075110;28;20048;-73
2023/03/28 07:08:38;;;;;;;10.23;8.57;;;;;;;-1.72;100.00;92596.56;5068625;28;20049;-73
2023/03/28 07:11:07;;;;;;;14.00;10.07;;;;;;;-1.92;100.00;92568.28;5068007;28;20435;-74
2023/03/28 07:13:34;;;;;;;11.98;9.23;;;;;;;-1.59;100.00;92597.88;5069471;28;20102;-73
2023/03/28 07:16:04;;;;;;;15.52;10.30;;;;;;;-1.57;100.00;92578.38;5068861;28;20093;-72
2023/03/28 07:18:31;;;;;;;15.35;11.00;;;;;;;-1.56;100.00;92615.22;5068906;28;20045;-73
2023/03/28 07:20:58;;;;;;;13.82;9.18;;;;;;;-1.63;100.00;92612.50;5068547;28;20086;-74
2023/03/28 07:23:25;;;;;;;9.02;7.10;;;;;;;-1.76;100.00;92608.66;5068288;28;20094;-73
2023/03/28 07:25:52;;;;;;;9.85;8.85;;;;;;;-1.64;100.00;92605.88;5074499;28;20046;-73
2023/03/28 07:28:20;;;;;;;9.20;8.23;;;;;;;-1.39;100.00;92637.00;5075916;28;20083;-73
2023/03/28 07:30:46;;;;;;;8.43;7.53;;;;;;;-1.30;100.00;92637.06;5071034;28;20066;-74
2023/03/28 07:33:13;;;;;;;7.40;6.28;;;;;;;-1.04;100.00;92642.03;5068627;28;20110;-73
2023/03/28 07:35:41;;;;;;;7.10;5.82;;;;;;;-1.13;100.00;92646.25;5068197;28;20106;-74
2023/03/28 07:38:10;;;;;;;7.13;5.97;;;;;;;-1.23;100.00;92650.63;5068328;28;20386;-74
2023/03/28 07:40:37;;;;;;;7.13;5.28;;;;;;;-1.42;100.00;92642.38;5067443;28;20063;-72
2023/03/28 07:43:04;;;;;;;7.45;6.28;;;;;;;-1.43;100.00;92640.75;5071503;28;20461;-73
2023/03/28 07:45:32;;;;;;;6.65;5.47;;;;;;;-1.39;100.00;92648.81;5071747;28;20455;-74
2023/03/28 07:47:59;;;;;;;7.63;6.40;;;;;;;-1.21;100.00;92666.38;5071848;28;20052;-73
2023/03/28 07:50:26;;;;;;;9.05;6.43;;;;;;;-1.42;100.00;92654.97;5071594;28;20098;-73
2023/03/28 07:52:56;;;;;;;6.90;5.38;;;;;;;-1.47;100.00;92664.69;5071893;28;20067;-72
2023/03/28 07:55:24;;;;;;;7.88;6.18;;;;;;;-1.35;100.00;92627.41;5071429;28;20386;-72
2023/03/28 07:57:51;;;;;;;6.57;5.22;;;;;;;-1.10;100.00;92650.19;5072107;28;20047;-73
2023/03/28 08:00:22;;;;;;;9.50;6.75;;;;;;;-1.19;100.00;92641.81;5071695;28;20045;-73
2023/03/28 08:02:51;;;;;;;13.48;7.35;;;;;;;-0.95;100.00;92655.44;5072034;28;20094;-73
2023/03/28 08:05:17;;;;;;;12.63;7.03;;;;;;;-0.68;100.00;92673.81;5071581;28;20045;-74
2023/03/28 08:07:45;;;;;;;9.23;5.82;;;;;;;-0.68;100.00;92679.63;5071319;28;20097;-73
2023/03/28 08:10:13;;;;;;;9.93;7.13;;;;;;;-0.66;100.00;92682.00;5071762;28;20114;-73
2023/03/28 08:12:40;;;;;;;7.00;6.10;;;;;;;-1.05;100.00;92688.34;5071773;28;20126;-74
2023/03/28 08:15:08;;;;;;;8.57;7.07;;;;;;;-1.06;100.00;92689.28;5070970;28;20114;-73
2023/03/28 08:17:35;;;;;;;9.07;6.63;;;;;;;-1.06;100.00;92699.38;5071138;28;20053;-73
2023/03/28 08:20:08;;;;;;;10.50;6.72;;;;;;;-1.06;100.00;92703.63;5071607;28;20082;-73
2023/03/28 08:22:35;;;;;;;6.50;4.85;;;;;;;-1.36;100.00;92711.50;5071728;28;20107;-74
2023/03/28 08:25:03;;;;;;;9.00;5.95;;;;;;;-1.16;100.00;92717.09;5071159;28;20534;-74
2023/03/28 08:27:33;;;;;;;5.93;5.28;;;;;;;-1.24;100.00;92696.94;5071616;28;20094;-72
2023/03/28 08:29:59;;;;;;;6.28;5.20;;;;;;;-0.98;100.00;92701.91;5085165;28;20051;-72
2023/03/28 08:32:26;;;;;;;7.53;5.90;;;;;;;-0.91;100.00;92709.66;5071722;28;20451;-72
2023/03/28 08:34:56;;;;;;;6.13;5.05;;;;;;;-0.91;100.00;92714.72;5071319;28;20098;-72
2023/03/28 08:37:24;;;;;;;6.15;4.80;;;;;;;-0.83;100.00;92714.72;5071117;28;20062;-73
2023/03/28 08:39:51;;;;;;;6.22;5.63;;;;;;;-0.98;100.00;92713.72;5071060;28;20556;-72
2023/03/28 08:42:45;;;;;;;6.78;5.63;;;;;;;-1.06;100.00;92722.06;5071322;28;20090;-73
2023/03/28 08:45:25;;;;;;;10.93;6.25;;;;;;;-1.07;100.00;92733.06;5070942;28;20049;-72
2023/03/28 08:48:05;;;;;;;4.70;4.20;;;;;;;-1.20;100.00;92748.63;5071169;28;20056;-72
2023/03/28 08:50:34;;;;;;;8.98;7.05;;;;;;;-1.53;100.00;92721.47;5070967;28;20555;-73
2023/03/28 08:53:04;;;;;;;6.43;5.75;;;;;;;-1.22;100.00;92741.19;5070712;28;20110;-73
2023/03/28 08:55:36;;;;;;;8.82;6.43;;;;;;;-1.30;100.00;92700.03;5070701;28;20059;-72
2023/03/28 08:58:04;;;;;;;7.00;5.53;;;;;;;-1.01;100.00;92744.28;5070712;28;20500;-72
2023/03/28 09:00:32;;;;;;;8.52;5.80;;;;;;;-0.99;100.00;92747.44;5070697;28;20531;-73
2023/03/28 09:03:00;;;;;;;9.15;6.60;;;;;;;-0.92;100.00;92743.41;5070645;28;20087;-73
2023/03/28 09:05:37;;;;;;;6.50;5.57;;;;;;;-1.23;100.00;92749.69;5070325;28;20060;-73
2023/03/28 09:08:19;;;;;;;9.80;6.85;;;;;;;-1.18;100.00;92746.72;5070418;28;20699;-73
2023/03/28 09:10:52;;;;;;;8.40;6.65;;;;;;;-0.91;100.00;92751.72;5070337;28;20094;-73
2023/03/28 09:13:32;;;;;;;8.57;6.40;;;;;;;-0.86;100.00;92752.88;5070193;28;20519;-73
2023/03/28 09:16:10;;;;;;;7.72;6.00;;;;;;;-0.77;100.00;92756.22;5070416;28;20524;-72
2023/03/28 09:18:56;;;;;;;8.20;5.40;;;;;;;-0.63;100.00;92754.84;5070068;28;20040;-73
2023/03/28 09:21:31;;;;;;;9.70;6.82;;;;;;;-0.70;100.00;92753.84;5070402;28;20048;-73
2023/03/28 09:24:29;;;;;;;8.63;6.18;;;;;;;-0.97;100.00;92746.34;5070322;28;20182;-72
2023/03/28 09:27:02;;;;;;;13.15;7.15;;;;;;;-0.51;100.00;92740.22;5065934;28;20048;-72
2023/03/28 09:29:31;;;;;;;8.68;6.07;;;;;;;-0.37;100.00;92741.34;5079407;28;20064;-72
2023/03/28 09:32:03;;;;;;;9.25;7.30;;;;;;;-0.15;100.00;92742.50;5073833;28;20052;-73
2023/03/28 09:34:38;;;;;;;8.02;5.03;;;;;;;-0.43;100.00;92744.47;5070274;28;20106;-72
2023/03/28 09:37:16;;;;;;;8.23;5.32;;;;;;;-0.12;100.00;92748.19;5069641;28;20805;-72
2023/03/28 09:39:50;;;;;;;7.13;5.05;;;;;;;-0.29;100.00;92726.22;5070227;28;20056;-72
2023/03/28 09:42:27;;;;;;;6.88;5.00;;;;;;;-0.41;100.00;92762.81;5069773;28;20040;-73
2023/03/28 09:45:02;;;;;;;8.38;5.90;;;;;;;-0.60;100.00;92731.81;5070185;28;20045;-72
2023/03/28 09:47:29;;;;;;;5.70;4.90;;;;;;;-0.16;100.00;92765.38;5069940;28;20049;-73
2023/03/28 09:49:57;;;;;;;5.57;4.97;;;;;;;-0.09;98.67;92768.06;5070518;28;20040;-72
2023/03/28 09:52:24;;;;;;;9.02;6.25;;;;;;;-0.03;99.15;92773.31;5069268;28;20110;-72
2023/03/28 09:54:52;;;;;;;5.97;4.45;;;;;;;-0.26;98.67;92770.56;5069341;28;20058;-72
2023/03/28 09:57:18;;;;;;;6.97;5.10;;;;;;;-0.01;100.00;92768.88;5069370;28;20101;-72
2023/03/28 09:59:45;;;;;;;7.15;5.80;;;;;;;0.23;100.00;92766.53;5068823;28;20044;-73
2023/03/28 10:02:26;;;;;;;10.30;6.25;;;;;;;0.42;98.09;92759.56;5069311;28;20444;-73
2023/03/28 10:04:53;;;;;;;9.30;5.88;;;;;;;0.37;98.78;92757.53;5068450;28;20135;-73
2023/03/28 10:07:32;;;;;;;6.32;4.68;;;;;;;0.28;92.44;92758.47;5069190;28;20048;-73
2023/03/28 10:10:09;;;;;;;5.43;4.63;;;;;;;0.48;95.25;92764.00;5077743;28;20484;-73
2023/03/28 10:12:38;;;;;;;6.20;4.93;;;;;;;0.11;93.89;92778.66;5084862;28;20097;-73
2023/03/28 10:15:07;;;;;;;5.35;4.85;;;;;;;-0.36;96.43;92732.06;5089499;28;20040;-72
2023/03/28 10:17:36;;;;;;;9.63;6.47;;;;;;;-0.17;97.22;92734.31;5083553;28;20052;-73
2023/03/28 10:20:14;;;;;;;6.03;5.18;;;;;;;0.04;98.60;92775.97;5089267;28;20047;-73
2023/03/28 10:22:41;;;;;;;7.65;5.80;;;;;;;0.11;100.00;92773.63;5089802;28;20119;-72
2023/03/28 10:25:17;;;;;;;6.50;5.65;;;;;;;-0.16;98.34;92770.41;5089198;28;20085;-72
2023/03/28 10:27:45;;;;;;;7.13;5.40;;;;;;;-0.03;97.76;92787.66;5089340;28;20131;-72
2023/03/28 10:30:22;;;;;;;5.70;3.95;;;;;;;-0.30;94.47;92787.75;5089240;28;20055;-73
2023/03/28 10:33:07;;;;;;;9.68;6.40;;;;;;;-0.06;96.33;92788.75;5089642;28;20048;-72
2023/03/28 10:35:34;;;;;;;8.55;5.95;;;;;;;0.05;94.57;92790.16;5088912;28;20161;-72
2023/03/28 10:38:03;;;;;;;5.43;4.50;;;;;;;-0.23;92.47;92798.00;5089502;28;20052;-73
2023/03/28 10:40:32;;;;;;;8.30;4.78;;;;;;;-0.28;93.12;92790.91;5076588;28;20394;-72
2023/03/28 10:42:59;;;;;;;7.72;6.03;;;;;;;-0.35;96.28;92794.19;5089105;28;20086;-73
2023/03/28 10:45:34;;;;;;;9.35;6.40;;;;;;;-0.19;96.80;92776.56;5089297;28;20059;-72
2023/03/28 10:48:06;;;;;;;8.45;5.63;;;;;;;-0.33;96.44;92749.41;5089279;28;20047;-72
2023/03/28 10:50:37;;;;;;;7.38;5.40;;;;;;;0.14;95.33;92793.53;5089106;28;20056;-72
2023/03/28 10:53:28;;;;;;;7.57;5.28;;;;;;;0.32;96.35;92793.38;5089279;28;20385;-72
2023/03/28 10:56:12;;;;;;;6.57;5.03;;;;;;;0.36;95.16;92801.41;5088741;28;20048;-72
2023/03/28 10:58:51;;;;;;;9.35;5.28;;;;;;;-0.15;92.39;92803.09;5081768;28;20040;-73
2023/03/28 11:01:21;;;;;;;5.65;4.35;;;;;;;-0.28;90.91;92807.78;5069569;28;20496;-72
2023/03/28 11:04:05;;;;;;;9.77;6.20;;;;;;;-0.18;92.60;92798.34;5068992;28;20049;-73
2023/03/28 11:06:43;;;;;;;7.75;4.40;;;;;;;-0.04;89.55;92807.03;5076109;28;20407;-73
2023/03/28 11:09:23;;;;;;;6.03;4.28;;;;;;;0.02;88.28;92799.81;5089072;28;20052;-73
2023/03/28 11:12:03;;;;;;;6.45;5.35;;;;;;;-0.28;90.33;92827.97;5079420;28;20051;-73
2023/03/28 11:14:44;;;;;;;7.55;4.30;;;;;;;-0.23;92.49;92804.81;5098755;28;20044;-73
2023/03/28 11:17:16;;;;;;;6.25;4.50;;;;;;;-0.44;89.23;92813.56;5094962;28;20044;-73
2023/03/28 11:20:01;;;;;;;11.13;6.03;;;;;;;-0.30;92.53;92804.63;5092932;28;20043;-72
2023/03/28 11:22:40;;;;;;;7.22;5.55;;;;;;;0.14;91.92;92801.09;5081311;28;20097;-73
2023/03/28 11:25:19;;;;;;;5.78;4.60;;;;;;;0.25;88.72;92784.84;5092807;28;20052;-73
2023/03/28 11:27:54;;;;;;;11.20;5.95;;;;;;;0.51;90.28;92804.13;5092757;28;20047;-72
2023/03/28 11:30:24;;;;;;;11.48;5.38;;;;;;;0.16;89.93;92796.69;5092574;28;20438;-73
2023/03/28 11:32:59;;;;;;;8.32;5.78;;;;;;;0.49;92.06;92800.94;5092550;28;20090;-73
2023/03/28 11:35:31;;;;;;;11.77;5.65;;;;;;;0.56;91.63;92801.91;5092270;28;20044;-73
2023/03/28 11:38:03;;;;;;;7.80;5.18;;;;;;;0.71;91.43;92807.13;5092442;28;20048;-71
2023/03/28 11:40:36;;;;;;;6.95;4.80;;;;;;;1.04;91.25;92793.63;5079173;28;20060;-70
2023/03/28 11:43:06;;;;;;;6.18;3.92;;;;;;;0.91;85.19;92802.50;5088422;28;20040;-70